sensor_id;sensor_type;location;lat;lon;timestamp;P1;durP1;ratioP1;P2;durP2;ratioP2
10811;SDS011;5458;51.496;7.334;2023-05-10T00:00:30;3.25;;;2.95;;
10811;SDS011;5458;51.496;7.334;2023-05-10T00:02:56;3.80;;;3.05;;
10811;SDS011;5458;51.496;7.334;2023-05-10T00:05:21;3.80;;;3.45;;
10811;SDS011;5458;51.496;7.334;2023-05-10T00:07:47;3.90;;;3.50;;
10811;SDS011;5458;51.496;7.334;2023-05-10T00:10:12;3.63;;;3.17;;
10811;SDS011;5458;51.496;7.334;2023-05-10T00:12:38;3.85;;;3.55;;
10811;SDS011;5458;51.496;7.334;2023-05-10T00:15:04;3.92;;;3.63;;
10811;SDS011;5458;51.496;7.334;2023-05-10T00:17:30;4.85;;;4.43;;
10811;SDS011;5458;51.496;7.334;2023-05-10T00:19:56;4.93;;;4.47;;
10811;SDS011;5458;51.496;7.334;2023-05-10T00:22:22;4.57;;;4.18;;
10811;SDS011;5458;51.496;7.334;2023-05-10T00:24:48;5.13;;;4.60;;
10811;SDS011;5458;51.496;7.334;2023-05-10T00:27:13;5.38;;;4.68;;
10811;SDS011;5458;51.496;7.334;2023-05-10T00:29:39;5.82;;;5.20;;
10811;SDS011;5458;51.496;7.334;2023-05-10T00:32:05;6.70;;;5.40;;
10811;SDS011;5458;51.496;7.334;2023-05-10T00:34:30;6.80;;;5.78;;
10811;SDS011;5458;51.496;7.334;2023-05-10T00:36:56;7.65;;;5.85;;
10811;SDS011;5458;51.496;7.334;2023-05-10T00:39:22;6.20;;;5.60;;
10811;SDS011;5458;51.496;7.334;2023-05-10T00:41:47;7.78;;;5.55;;
10811;SDS011;5458;51.496;7.334;2023-05-10T00:44:13;5.70;;;5.13;;
10811;SDS011;5458;51.496;7.334;2023-05-10T00:46:38;5.10;;;4.55;;
10811;SDS011;5458;51.496;7.334;2023-05-10T00:49:04;5.50;;;4.88;;
10811;SDS011;5458;51.496;7.334;2023-05-10T00:51:30;5.22;;;4.65;;
10811;SDS011;5458;51.496;7.334;2023-05-10T00:53:56;5.38;;;4.88;;
10811;SDS011;5458;51.496;7.334;2023-05-10T00:56:23;5.93;;;5.30;;
10811;SDS011;5458;51.496;7.334;2023-05-10T00:58:49;5.97;;;5.30;;
10811;SDS011;5458;51.496;7.334;2023-05-10T01:01:15;6.93;;;6.18;;
10811;SDS011;5458;51.496;7.334;2023-05-10T01:03:41;7.32;;;6.63;;
10811;SDS011;5458;51.496;7.334;2023-05-10T01:06:07;7.28;;;6.50;;
10811;SDS011;5458;51.496;7.334;2023-05-10T01:08:34;7.65;;;6.80;;
10811;SDS011;5458;51.496;7.334;2023-05-10T01:11:00;8.38;;;7.50;;
10811;SDS011;5458;51.496;7.334;2023-05-10T01:13:36;8.40;;;7.43;;
10811;SDS011;5458;51.496;7.334;2023-05-10T01:16:04;11.50;;;8.52;;
10811;SDS011;5458;51.496;7.334;2023-05-10T01:18:32;8.95;;;7.85;;
10811;SDS011;5458;51.496;7.334;2023-05-10T01:26:28;8.60;;;7.72;;
10811;SDS011;5458;51.496;7.334;2023-05-10T01:32:11;10.43;;;9.02;;
10811;SDS011;5458;51.496;7.334;2023-05-10T01:35:22;10.10;;;8.63;;
10811;SDS011;5458;51.496;7.334;2023-05-10T01:37:46;9.35;;;8.13;;
10811;SDS011;5458;51.496;7.334;2023-05-10T01:40:39;9.10;;;8.10;;
10811;SDS011;5458;51.496;7.334;2023-05-10T01:43:19;8.85;;;7.90;;
10811;SDS011;5458;51.496;7.334;2023-05-10T01:48:40;9.23;;;7.70;;
10811;SDS011;5458;51.496;7.334;2023-05-10T01:51:12;8.00;;;6.22;;
10811;SDS011;5458;51.496;7.334;2023-05-10T01:54:01;7.53;;;6.13;;
10811;SDS011;5458;51.496;7.334;2023-05-10T01:56:29;5.30;;;4.20;;
10811;SDS011;5458;51.496;7.334;2023-05-10T01:58:57;4.43;;;3.92;;
10811;SDS011;5458;51.496;7.334;2023-05-10T02:01:24;4.53;;;4.07;;
10811;SDS011;5458;51.496;7.334;2023-05-10T02:03:52;4.90;;;4.40;;
10811;SDS011;5458;51.496;7.334;2023-05-10T02:06:19;4.80;;;4.30;;
10811;SDS011;5458;51.496;7.334;2023-05-10T02:08:46;7.10;;;4.65;;
10811;SDS011;5458;51.496;7.334;2023-05-10T02:11:14;5.45;;;4.43;;
10811;SDS011;5458;51.496;7.334;2023-05-10T02:13:40;5.07;;;4.68;;
10811;SDS011;5458;51.496;7.334;2023-05-10T02:16:08;4.68;;;4.07;;
10811;SDS011;5458;51.496;7.334;2023-05-10T02:18:34;4.97;;;3.88;;
10811;SDS011;5458;51.496;7.334;2023-05-10T02:21:02;4.13;;;3.72;;
10811;SDS011;5458;51.496;7.334;2023-05-10T02:23:28;4.53;;;4.10;;
10811;SDS011;5458;51.496;7.334;2023-05-10T02:25:55;4.68;;;4.28;;
10811;SDS011;5458;51.496;7.334;2023-05-10T02:28:23;4.43;;;4.03;;
10811;SDS011;5458;51.496;7.334;2023-05-10T02:30:50;5.13;;;4.45;;
10811;SDS011;5458;51.496;7.334;2023-05-10T02:33:17;5.13;;;4.63;;
10811;SDS011;5458;51.496;7.334;2023-05-10T02:35:44;7.45;;;5.75;;
10811;SDS011;5458;51.496;7.334;2023-05-10T02:38:11;5.03;;;4.57;;
10811;SDS011;5458;51.496;7.334;2023-05-10T02:40:39;6.25;;;5.65;;
10811;SDS011;5458;51.496;7.334;2023-05-10T02:43:07;6.15;;;5.57;;
10811;SDS011;5458;51.496;7.334;2023-05-10T02:45:36;7.10;;;6.22;;
10811;SDS011;5458;51.496;7.334;2023-05-10T02:48:04;7.85;;;5.82;;
10811;SDS011;5458;51.496;7.334;2023-05-10T02:50:30;7.30;;;5.95;;
10811;SDS011;5458;51.496;7.334;2023-05-10T02:53:03;8.43;;;7.30;;
10811;SDS011;5458;51.496;7.334;2023-05-10T02:55:36;8.07;;;7.28;;
10811;SDS011;5458;51.496;7.334;2023-05-10T02:58:04;8.38;;;7.10;;
10811;SDS011;5458;51.496;7.334;2023-05-10T03:00:30;7.97;;;7.18;;
10811;SDS011;5458;51.496;7.334;2023-05-10T03:02:56;10.77;;;8.60;;
10811;SDS011;5458;51.496;7.334;2023-05-10T03:05:22;9.23;;;8.27;;
10811;SDS011;5458;51.496;7.334;2023-05-10T03:07:48;10.15;;;8.02;;
10811;SDS011;5458;51.496;7.334;2023-05-10T03:10:14;10.82;;;9.13;;
10811;SDS011;5458;51.496;7.334;2023-05-10T03:12:51;10.55;;;9.25;;
10811;SDS011;5458;51.496;7.334;2023-05-10T03:21:07;11.85;;;9.95;;
10811;SDS011;5458;51.496;7.334;2023-05-10T03:23:41;14.27;;;10.65;;
10811;SDS011;5458;51.496;7.334;2023-05-10T03:26:12;11.98;;;10.25;;
10811;SDS011;5458;51.496;7.334;2023-05-10T03:28:51;13.75;;;11.15;;
10811;SDS011;5458;51.496;7.334;2023-05-10T03:31:18;12.35;;;10.77;;
10811;SDS011;5458;51.496;7.334;2023-05-10T03:33:47;15.68;;;11.20;;
10811;SDS011;5458;51.496;7.334;2023-05-10T03:36:13;12.23;;;9.95;;
10811;SDS011;5458;51.496;7.334;2023-05-10T03:38:39;13.95;;;10.95;;
10811;SDS011;5458;51.496;7.334;2023-05-10T03:41:04;14.20;;;11.20;;
10811;SDS011;5458;51.496;7.334;2023-05-10T03:43:30;13.95;;;11.02;;
10811;SDS011;5458;51.496;7.334;2023-05-10T03:45:56;14.80;;;12.27;;
10811;SDS011;5458;51.496;7.334;2023-05-10T03:48:21;16.52;;;11.75;;
10811;SDS011;5458;51.496;7.334;2023-05-10T03:50:47;16.98;;;11.68;;
10811;SDS011;5458;51.496;7.334;2023-05-10T03:53:14;14.55;;;11.35;;
10811;SDS011;5458;51.496;7.334;2023-05-10T03:55:40;16.73;;;11.48;;
10811;SDS011;5458;51.496;7.334;2023-05-10T03:58:05;14.73;;;10.50;;
10811;SDS011;5458;51.496;7.334;2023-05-10T04:00:31;16.85;;;11.27;;
10811;SDS011;5458;51.496;7.334;2023-05-10T04:02:57;14.25;;;11.07;;
10811;SDS011;5458;51.496;7.334;2023-05-10T04:05:23;14.35;;;10.65;;
10811;SDS011;5458;51.496;7.334;2023-05-10T04:07:49;14.65;;;11.27;;
10811;SDS011;5458;51.496;7.334;2023-05-10T04:10:15;16.05;;;11.63;;
10811;SDS011;5458;51.496;7.334;2023-05-10T04:12:41;14.23;;;11.02;;
10811;SDS011;5458;51.496;7.334;2023-05-10T04:15:07;15.52;;;10.85;;
10811;SDS011;5458;51.496;7.334;2023-05-10T04:17:33;14.77;;;10.50;;
10811;SDS011;5458;51.496;7.334;2023-05-10T04:19:58;14.23;;;10.25;;
10811;SDS011;5458;51.496;7.334;2023-05-10T04:22:24;16.67;;;10.75;;
10811;SDS011;5458;51.496;7.334;2023-05-10T04:24:50;18.10;;;11.50;;
10811;SDS011;5458;51.496;7.334;2023-05-10T04:27:15;14.48;;;10.68;;
10811;SDS011;5458;51.496;7.334;2023-05-10T04:29:41;17.30;;;10.68;;
10811;SDS011;5458;51.496;7.334;2023-05-10T04:32:06;13.93;;;9.82;;
10811;SDS011;5458;51.496;7.334;2023-05-10T04:34:32;18.15;;;11.10;;
10811;SDS011;5458;51.496;7.334;2023-05-10T04:36:59;14.93;;;10.82;;
10811;SDS011;5458;51.496;7.334;2023-05-10T04:39:24;17.42;;;11.85;;
10811;SDS011;5458;51.496;7.334;2023-05-10T04:41:50;18.60;;;13.52;;
10811;SDS011;5458;51.496;7.334;2023-05-10T04:44:15;18.90;;;14.43;;
10811;SDS011;5458;51.496;7.334;2023-05-10T04:46:41;19.13;;;14.63;;
10811;SDS011;5458;51.496;7.334;2023-05-10T04:49:07;20.17;;;14.52;;
10811;SDS011;5458;51.496;7.334;2023-05-10T04:51:32;21.73;;;16.17;;
10811;SDS011;5458;51.496;7.334;2023-05-10T04:53:58;22.10;;;16.27;;
10811;SDS011;5458;51.496;7.334;2023-05-10T04:56:23;25.20;;;17.23;;
10811;SDS011;5458;51.496;7.334;2023-05-10T04:58:49;24.83;;;17.27;;
10811;SDS011;5458;51.496;7.334;2023-05-10T05:01:15;27.85;;;18.13;;
10811;SDS011;5458;51.496;7.334;2023-05-10T05:03:40;26.75;;;18.02;;
10811;SDS011;5458;51.496;7.334;2023-05-10T05:06:06;26.30;;;19.30;;
10811;SDS011;5458;51.496;7.334;2023-05-10T05:08:31;27.55;;;19.15;;
10811;SDS011;5458;51.496;7.334;2023-05-10T05:10:57;27.27;;;18.65;;
10811;SDS011;5458;51.496;7.334;2023-05-10T05:13:24;33.38;;;20.30;;
10811;SDS011;5458;51.496;7.334;2023-05-10T05:15:49;30.65;;;20.50;;
10811;SDS011;5458;51.496;7.334;2023-05-10T05:18:15;31.60;;;20.83;;
10811;SDS011;5458;51.496;7.334;2023-05-10T05:20:41;31.40;;;21.17;;
10811;SDS011;5458;51.496;7.334;2023-05-10T05:23:06;32.00;;;21.00;;
10811;SDS011;5458;51.496;7.334;2023-05-10T05:25:32;31.50;;;21.88;;
10811;SDS011;5458;51.496;7.334;2023-05-10T05:27:57;32.75;;;22.23;;
10811;SDS011;5458;51.496;7.334;2023-05-10T05:30:23;30.30;;;20.80;;
10811;SDS011;5458;51.496;7.334;2023-05-10T05:32:49;33.83;;;23.40;;
10811;SDS011;5458;51.496;7.334;2023-05-10T05:35:14;32.40;;;21.85;;
10811;SDS011;5458;51.496;7.334;2023-05-10T05:37:40;32.47;;;22.48;;
10811;SDS011;5458;51.496;7.334;2023-05-10T05:40:05;33.97;;;22.65;;
10811;SDS011;5458;51.496;7.334;2023-05-10T05:42:31;35.03;;;23.77;;
10811;SDS011;5458;51.496;7.334;2023-05-10T05:44:57;34.90;;;23.27;;
10811;SDS011;5458;51.496;7.334;2023-05-10T05:47:23;32.70;;;23.23;;
10811;SDS011;5458;51.496;7.334;2023-05-10T05:49:48;35.30;;;24.33;;
10811;SDS011;5458;51.496;7.334;2023-05-10T05:52:14;33.60;;;23.63;;
10811;SDS011;5458;51.496;7.334;2023-05-10T05:54:40;33.88;;;23.23;;
10811;SDS011;5458;51.496;7.334;2023-05-10T05:57:05;33.85;;;24.10;;
10811;SDS011;5458;51.496;7.334;2023-05-10T05:59:31;33.75;;;25.48;;
10811;SDS011;5458;51.496;7.334;2023-05-10T06:01:57;37.25;;;24.70;;
10811;SDS011;5458;51.496;7.334;2023-05-10T06:04:22;36.95;;;24.88;;
10811;SDS011;5458;51.496;7.334;2023-05-10T06:06:48;35.80;;;23.17;;
10811;SDS011;5458;51.496;7.334;2023-05-10T06:09:13;38.83;;;25.88;;
10811;SDS011;5458;51.496;7.334;2023-05-10T06:11:39;38.65;;;25.90;;
10811;SDS011;5458;51.496;7.334;2023-05-10T06:14:05;37.75;;;25.95;;
10811;SDS011;5458;51.496;7.334;2023-05-10T06:16:32;36.92;;;26.58;;
10811;SDS011;5458;51.496;7.334;2023-05-10T06:18:57;40.28;;;26.75;;
10811;SDS011;5458;51.496;7.334;2023-05-10T06:21:23;36.53;;;25.65;;
10811;SDS011;5458;51.496;7.334;2023-05-10T06:23:49;37.47;;;25.00;;
10811;SDS011;5458;51.496;7.334;2023-05-10T06:26:14;39.72;;;26.70;;
10811;SDS011;5458;51.496;7.334;2023-05-10T06:28:40;37.83;;;26.17;;
10811;SDS011;5458;51.496;7.334;2023-05-10T06:31:06;37.70;;;26.67;;
10811;SDS011;5458;51.496;7.334;2023-05-10T06:33:32;36.78;;;25.42;;
10811;SDS011;5458;51.496;7.334;2023-05-10T06:35:58;39.70;;;25.98;;
10811;SDS011;5458;51.496;7.334;2023-05-10T06:38:24;38.75;;;25.80;;
10811;SDS011;5458;51.496;7.334;2023-05-10T06:40:49;41.08;;;27.00;;
10811;SDS011;5458;51.496;7.334;2023-05-10T06:43:15;38.97;;;25.70;;
10811;SDS011;5458;51.496;7.334;2023-05-10T06:45:41;36.60;;;26.50;;
10811;SDS011;5458;51.496;7.334;2023-05-10T06:48:07;36.50;;;24.58;;
10811;SDS011;5458;51.496;7.334;2023-05-10T06:50:32;35.13;;;25.05;;
10811;SDS011;5458;51.496;7.334;2023-05-10T06:52:58;33.65;;;23.88;;
10811;SDS011;5458;51.496;7.334;2023-05-10T06:55:24;34.60;;;24.10;;
10811;SDS011;5458;51.496;7.334;2023-05-10T06:57:50;33.88;;;24.00;;
10811;SDS011;5458;51.496;7.334;2023-05-10T07:00:16;39.42;;;26.50;;
10811;SDS011;5458;51.496;7.334;2023-05-10T07:02:42;32.03;;;22.85;;
10811;SDS011;5458;51.496;7.334;2023-05-10T07:05:08;33.58;;;23.45;;
10811;SDS011;5458;51.496;7.334;2023-05-10T07:07:34;29.55;;;21.30;;
10811;SDS011;5458;51.496;7.334;2023-05-10T07:10:00;29.30;;;21.83;;
10811;SDS011;5458;51.496;7.334;2023-05-10T07:12:25;29.00;;;21.48;;
10811;SDS011;5458;51.496;7.334;2023-05-10T07:14:51;27.52;;;20.25;;
10811;SDS011;5458;51.496;7.334;2023-05-10T07:17:17;29.50;;;19.92;;
10811;SDS011;5458;51.496;7.334;2023-05-10T07:19:42;26.08;;;19.70;;
10811;SDS011;5458;51.496;7.334;2023-05-10T07:22:08;27.70;;;20.48;;
10811;SDS011;5458;51.496;7.334;2023-05-10T07:24:34;26.73;;;21.02;;
10811;SDS011;5458;51.496;7.334;2023-05-10T07:26:59;29.63;;;20.63;;
10811;SDS011;5458;51.496;7.334;2023-05-10T07:29:25;25.55;;;21.02;;
10811;SDS011;5458;51.496;7.334;2023-05-10T07:31:51;24.58;;;19.05;;
10811;SDS011;5458;51.496;7.334;2023-05-10T07:34:17;27.02;;;20.83;;
10811;SDS011;5458;51.496;7.334;2023-05-10T07:36:42;29.10;;;22.23;;
10811;SDS011;5458;51.496;7.334;2023-05-10T07:39:08;28.48;;;19.90;;
10811;SDS011;5458;51.496;7.334;2023-05-10T07:41:33;30.08;;;21.85;;
10811;SDS011;5458;51.496;7.334;2023-05-10T07:43:59;28.65;;;21.27;;
10811;SDS011;5458;51.496;7.334;2023-05-10T07:46:25;34.65;;;22.35;;
10811;SDS011;5458;51.496;7.334;2023-05-10T07:48:50;29.45;;;20.38;;
10811;SDS011;5458;51.496;7.334;2023-05-10T07:51:16;31.40;;;20.50;;
10811;SDS011;5458;51.496;7.334;2023-05-10T07:53:41;25.45;;;18.48;;
10811;SDS011;5458;51.496;7.334;2023-05-10T07:56:24;27.40;;;19.63;;
10811;SDS011;5458;51.496;7.334;2023-05-10T07:58:58;28.35;;;19.40;;
10811;SDS011;5458;51.496;7.334;2023-05-10T08:01:24;27.95;;;19.02;;
10811;SDS011;5458;51.496;7.334;2023-05-10T08:03:51;23.17;;;16.92;;
10811;SDS011;5458;51.496;7.334;2023-05-10T08:06:18;23.80;;;17.65;;
10811;SDS011;5458;51.496;7.334;2023-05-10T08:08:47;26.63;;;19.27;;
10811;SDS011;5458;51.496;7.334;2023-05-10T08:11:18;23.85;;;18.70;;
10811;SDS011;5458;51.496;7.334;2023-05-10T08:13:45;26.75;;;19.88;;
10811;SDS011;5458;51.496;7.334;2023-05-10T08:16:12;28.45;;;21.45;;
10811;SDS011;5458;51.496;7.334;2023-05-10T08:18:38;27.45;;;21.17;;
10811;SDS011;5458;51.496;7.334;2023-05-10T08:21:04;32.03;;;21.85;;
10811;SDS011;5458;51.496;7.334;2023-05-10T08:23:30;26.33;;;19.80;;
10811;SDS011;5458;51.496;7.334;2023-05-10T08:25:55;25.23;;;19.17;;
10811;SDS011;5458;51.496;7.334;2023-05-10T08:28:21;28.55;;;20.88;;
10811;SDS011;5458;51.496;7.334;2023-05-10T08:30:47;31.05;;;22.30;;
10811;SDS011;5458;51.496;7.334;2023-05-10T08:33:12;32.00;;;22.17;;
10811;SDS011;5458;51.496;7.334;2023-05-10T08:35:38;34.47;;;22.65;;
10811;SDS011;5458;51.496;7.334;2023-05-10T08:38:04;33.83;;;21.60;;
10811;SDS011;5458;51.496;7.334;2023-05-10T08:40:29;28.55;;;21.25;;
10811;SDS011;5458;51.496;7.334;2023-05-10T08:43:04;28.88;;;20.58;;
10811;SDS011;5458;51.496;7.334;2023-05-10T08:45:32;30.05;;;21.27;;
10811;SDS011;5458;51.496;7.334;2023-05-10T08:48:02;27.13;;;20.45;;
10811;SDS011;5458;51.496;7.334;2023-05-10T08:50:29;27.75;;;20.55;;
10811;SDS011;5458;51.496;7.334;2023-05-10T08:52:57;30.02;;;19.45;;
10811;SDS011;5458;51.496;7.334;2023-05-10T08:55:25;32.92;;;21.10;;
10811;SDS011;5458;51.496;7.334;2023-05-10T08:57:52;36.80;;;22.88;;
10811;SDS011;5458;51.496;7.334;2023-05-10T09:00:18;31.67;;;21.20;;
10811;SDS011;5458;51.496;7.334;2023-05-10T09:02:44;30.63;;;20.30;;
10811;SDS011;5458;51.496;7.334;2023-05-10T09:05:13;32.83;;;21.55;;
10811;SDS011;5458;51.496;7.334;2023-05-10T09:07:40;27.13;;;18.27;;
10811;SDS011;5458;51.496;7.334;2023-05-10T09:10:06;30.60;;;20.42;;
10811;SDS011;5458;51.496;7.334;2023-05-10T09:12:34;31.90;;;20.17;;
10811;SDS011;5458;51.496;7.334;2023-05-10T09:15:00;27.10;;;18.42;;
10811;SDS011;5458;51.496;7.334;2023-05-10T09:17:28;24.33;;;18.90;;
10811;SDS011;5458;51.496;7.334;2023-05-10T09:19:58;25.13;;;18.05;;
10811;SDS011;5458;51.496;7.334;2023-05-10T09:22:24;27.20;;;17.33;;
10811;SDS011;5458;51.496;7.334;2023-05-10T09:25:03;20.83;;;16.25;;
10811;SDS011;5458;51.496;7.334;2023-05-10T09:27:33;24.52;;;16.67;;
10811;SDS011;5458;51.496;7.334;2023-05-10T09:29:59;21.00;;;14.55;;
10811;SDS011;5458;51.496;7.334;2023-05-10T09:32:40;20.27;;;14.27;;
10811;SDS011;5458;51.496;7.334;2023-05-10T09:35:11;18.27;;;13.73;;
10811;SDS011;5458;51.496;7.334;2023-05-10T09:37:45;17.88;;;13.20;;
10811;SDS011;5458;51.496;7.334;2023-05-10T09:40:19;17.05;;;12.45;;
10811;SDS011;5458;51.496;7.334;2023-05-10T09:45:20;17.88;;;14.00;;
10811;SDS011;5458;51.496;7.334;2023-05-10T09:47:47;18.98;;;14.13;;
10811;SDS011;5458;51.496;7.334;2023-05-10T09:50:13;19.63;;;14.18;;
10811;SDS011;5458;51.496;7.334;2023-05-10T09:55:23;15.02;;;12.30;;
10811;SDS011;5458;51.496;7.334;2023-05-10T09:57:57;15.43;;;11.07;;
10811;SDS011;5458;51.496;7.334;2023-05-10T10:00:24;15.43;;;10.80;;
10811;SDS011;5458;51.496;7.334;2023-05-10T10:02:56;14.43;;;10.40;;
10811;SDS011;5458;51.496;7.334;2023-05-10T10:05:30;13.27;;;9.40;;
10811;SDS011;5458;51.496;7.334;2023-05-10T10:08:00;13.75;;;9.68;;
10811;SDS011;5458;51.496;7.334;2023-05-10T10:10:28;12.18;;;9.65;;
10811;SDS011;5458;51.496;7.334;2023-05-10T10:12:54;13.93;;;9.70;;
10811;SDS011;5458;51.496;7.334;2023-05-10T10:15:20;16.35;;;11.45;;
10811;SDS011;5458;51.496;7.334;2023-05-10T10:17:48;13.43;;;10.00;;
10811;SDS011;5458;51.496;7.334;2023-05-10T10:20:15;17.27;;;10.95;;
10811;SDS011;5458;51.496;7.334;2023-05-10T10:22:41;15.98;;;10.65;;
10811;SDS011;5458;51.496;7.334;2023-05-10T10:25:09;14.60;;;9.13;;
10811;SDS011;5458;51.496;7.334;2023-05-10T10:27:39;11.57;;;8.57;;
10811;SDS011;5458;51.496;7.334;2023-05-10T10:35:54;9.98;;;8.07;;
10811;SDS011;5458;51.496;7.334;2023-05-10T10:38:22;13.10;;;9.65;;
10811;SDS011;5458;51.496;7.334;2023-05-10T10:40:48;20.50;;;11.15;;
10811;SDS011;5458;51.496;7.334;2023-05-10T10:43:27;20.45;;;14.07;;
10811;SDS011;5458;51.496;7.334;2023-05-10T10:48:38;22.70;;;15.23;;
10811;SDS011;5458;51.496;7.334;2023-05-10T10:51:04;23.02;;;15.25;;
10811;SDS011;5458;51.496;7.334;2023-05-10T10:53:30;23.92;;;15.63;;
10811;SDS011;5458;51.496;7.334;2023-05-10T10:56:06;22.15;;;15.60;;
10811;SDS011;5458;51.496;7.334;2023-05-10T10:58:34;18.83;;;14.20;;
10811;SDS011;5458;51.496;7.334;2023-05-10T11:01:18;20.00;;;13.02;;
10811;SDS011;5458;51.496;7.334;2023-05-10T11:04:29;16.85;;;11.55;;
10811;SDS011;5458;51.496;7.334;2023-05-10T11:09:09;16.95;;;11.98;;
10811;SDS011;5458;51.496;7.334;2023-05-10T11:11:37;14.98;;;10.82;;
10811;SDS011;5458;51.496;7.334;2023-05-10T11:14:14;13.40;;;10.35;;
10811;SDS011;5458;51.496;7.334;2023-05-10T11:16:46;16.02;;;11.90;;
10811;SDS011;5458;51.496;7.334;2023-05-10T11:19:12;14.43;;;11.18;;
10811;SDS011;5458;51.496;7.334;2023-05-10T11:24:20;16.50;;;14.70;;
10811;SDS011;5458;51.496;7.334;2023-05-10T11:26:49;21.20;;;16.83;;
10811;SDS011;5458;51.496;7.334;2023-05-10T11:29:16;20.38;;;16.30;;
10811;SDS011;5458;51.496;7.334;2023-05-10T11:31:43;19.85;;;15.88;;
10811;SDS011;5458;51.496;7.334;2023-05-10T11:34:10;17.88;;;15.65;;
10811;SDS011;5458;51.496;7.334;2023-05-10T11:36:36;18.05;;;14.63;;
10811;SDS011;5458;51.496;7.334;2023-05-10T11:39:02;16.30;;;14.45;;
10811;SDS011;5458;51.496;7.334;2023-05-10T11:41:28;18.48;;;14.20;;
10811;SDS011;5458;51.496;7.334;2023-05-10T11:43:56;21.38;;;15.20;;
10811;SDS011;5458;51.496;7.334;2023-05-10T11:46:23;23.67;;;13.50;;
10811;SDS011;5458;51.496;7.334;2023-05-10T11:48:50;19.50;;;13.40;;
10811;SDS011;5458;51.496;7.334;2023-05-10T11:51:22;15.35;;;11.75;;
10811;SDS011;5458;51.496;7.334;2023-05-10T11:53:53;17.38;;;11.48;;
10811;SDS011;5458;51.496;7.334;2023-05-10T11:56:21;17.65;;;12.80;;
10811;SDS011;5458;51.496;7.334;2023-05-10T11:58:55;17.92;;;12.20;;
10811;SDS011;5458;51.496;7.334;2023-05-10T12:01:21;17.83;;;11.98;;
10811;SDS011;5458;51.496;7.334;2023-05-10T12:03:49;16.60;;;12.18;;
10811;SDS011;5458;51.496;7.334;2023-05-10T12:06:15;15.27;;;11.52;;
10811;SDS011;5458;51.496;7.334;2023-05-10T12:08:48;15.82;;;11.57;;
10811;SDS011;5458;51.496;7.334;2023-05-10T12:11:20;16.30;;;11.23;;
10811;SDS011;5458;51.496;7.334;2023-05-10T12:13:50;12.95;;;10.23;;
10811;SDS011;5458;51.496;7.334;2023-05-10T12:16:18;14.52;;;10.05;;
10811;SDS011;5458;51.496;7.334;2023-05-10T12:18:48;12.38;;;9.68;;
10811;SDS011;5458;51.496;7.334;2023-05-10T12:21:16;12.23;;;8.15;;
10811;SDS011;5458;51.496;7.334;2023-05-10T12:23:42;10.02;;;8.00;;
10811;SDS011;5458;51.496;7.334;2023-05-10T12:26:10;11.18;;;8.93;;
10811;SDS011;5458;51.496;7.334;2023-05-10T12:28:36;16.30;;;10.35;;
10811;SDS011;5458;51.496;7.334;2023-05-10T12:31:03;13.65;;;10.20;;
10811;SDS011;5458;51.496;7.334;2023-05-10T12:33:36;13.60;;;10.35;;
10811;SDS011;5458;51.496;7.334;2023-05-10T12:36:14;12.80;;;8.98;;
10811;SDS011;5458;51.496;7.334;2023-05-10T12:38:44;10.73;;;9.32;;
10811;SDS011;5458;51.496;7.334;2023-05-10T12:41:16;11.27;;;9.50;;
10811;SDS011;5458;51.496;7.334;2023-05-10T12:43:42;10.95;;;9.38;;
10811;SDS011;5458;51.496;7.334;2023-05-10T12:46:12;12.85;;;9.60;;
10811;SDS011;5458;51.496;7.334;2023-05-10T12:48:39;14.10;;;10.88;;
10811;SDS011;5458;51.496;7.334;2023-05-10T12:51:06;15.95;;;12.35;;
10811;SDS011;5458;51.496;7.334;2023-05-10T12:53:37;15.82;;;11.27;;
10811;SDS011;5458;51.496;7.334;2023-05-10T12:56:02;15.10;;;11.35;;
10811;SDS011;5458;51.496;7.334;2023-05-10T12:58:28;14.70;;;11.07;;
10811;SDS011;5458;51.496;7.334;2023-05-10T13:00:54;14.75;;;10.85;;
10811;SDS011;5458;51.496;7.334;2023-05-10T13:03:21;12.27;;;10.20;;
10811;SDS011;5458;51.496;7.334;2023-05-10T13:05:47;14.10;;;10.10;;
10811;SDS011;5458;51.496;7.334;2023-05-10T13:08:12;11.82;;;10.57;;
10811;SDS011;5458;51.496;7.334;2023-05-10T13:10:38;16.27;;;11.77;;
10811;SDS011;5458;51.496;7.334;2023-05-10T13:13:04;14.40;;;10.07;;
10811;SDS011;5458;51.496;7.334;2023-05-10T13:15:30;11.52;;;9.57;;
10811;SDS011;5458;51.496;7.334;2023-05-10T13:17:55;12.68;;;10.45;;
10811;SDS011;5458;51.496;7.334;2023-05-10T13:20:21;13.40;;;9.95;;
10811;SDS011;5458;51.496;7.334;2023-05-10T13:22:47;13.27;;;10.70;;
10811;SDS011;5458;51.496;7.334;2023-05-10T13:25:12;16.00;;;10.60;;
10811;SDS011;5458;51.496;7.334;2023-05-10T13:27:39;11.65;;;9.77;;
10811;SDS011;5458;51.496;7.334;2023-05-10T13:30:05;11.35;;;9.50;;
10811;SDS011;5458;51.496;7.334;2023-05-10T13:32:31;10.70;;;9.02;;
10811;SDS011;5458;51.496;7.334;2023-05-10T13:34:58;15.07;;;10.15;;
10811;SDS011;5458;51.496;7.334;2023-05-10T13:37:23;15.10;;;10.02;;
10811;SDS011;5458;51.496;7.334;2023-05-10T13:39:49;11.88;;;9.77;;
10811;SDS011;5458;51.496;7.334;2023-05-10T13:42:14;10.00;;;9.00;;
10811;SDS011;5458;51.496;7.334;2023-05-10T13:44:40;9.90;;;8.85;;
10811;SDS011;5458;51.496;7.334;2023-05-10T13:47:06;10.65;;;9.05;;
10811;SDS011;5458;51.496;7.334;2023-05-10T13:49:31;9.27;;;8.38;;
10811;SDS011;5458;51.496;7.334;2023-05-10T13:51:58;6.80;;;6.10;;
10811;SDS011;5458;51.496;7.334;2023-05-10T13:54:24;5.47;;;4.97;;
10811;SDS011;5458;51.496;7.334;2023-05-10T13:56:50;5.70;;;4.63;;
10811;SDS011;5458;51.496;7.334;2023-05-10T13:59:15;6.53;;;5.15;;
10811;SDS011;5458;51.496;7.334;2023-05-10T14:01:41;5.47;;;4.82;;
10811;SDS011;5458;51.496;7.334;2023-05-10T14:04:07;8.45;;;5.53;;
10811;SDS011;5458;51.496;7.334;2023-05-10T14:06:36;6.00;;;5.07;;
10811;SDS011;5458;51.496;7.334;2023-05-10T14:09:02;6.35;;;4.20;;
10811;SDS011;5458;51.496;7.334;2023-05-10T14:11:28;5.22;;;3.70;;
10811;SDS011;5458;51.496;7.334;2023-05-10T14:13:54;4.82;;;4.35;;
10811;SDS011;5458;51.496;7.334;2023-05-10T14:16:19;4.82;;;4.00;;
10811;SDS011;5458;51.496;7.334;2023-05-10T14:18:45;5.15;;;4.18;;
10811;SDS011;5458;51.496;7.334;2023-05-10T14:21:11;5.18;;;4.68;;
10811;SDS011;5458;51.496;7.334;2023-05-10T14:23:37;6.90;;;4.10;;
10811;SDS011;5458;51.496;7.334;2023-05-10T14:26:03;4.68;;;4.28;;
10811;SDS011;5458;51.496;7.334;2023-05-10T14:28:28;4.55;;;3.90;;
10811;SDS011;5458;51.496;7.334;2023-05-10T14:30:54;3.60;;;3.30;;
10811;SDS011;5458;51.496;7.334;2023-05-10T14:33:19;5.07;;;4.20;;
10811;SDS011;5458;51.496;7.334;2023-05-10T14:35:46;5.97;;;4.18;;
10811;SDS011;5458;51.496;7.334;2023-05-10T14:38:12;4.38;;;3.70;;
10811;SDS011;5458;51.496;7.334;2023-05-10T14:40:38;8.07;;;4.72;;
10811;SDS011;5458;51.496;7.334;2023-05-10T14:43:03;5.72;;;4.15;;
10811;SDS011;5458;51.496;7.334;2023-05-10T14:45:29;4.68;;;4.03;;
10811;SDS011;5458;51.496;7.334;2023-05-10T14:47:54;3.97;;;3.58;;
10811;SDS011;5458;51.496;7.334;2023-05-10T14:50:20;4.07;;;3.20;;
10811;SDS011;5458;51.496;7.334;2023-05-10T14:52:46;4.88;;;3.38;;
10811;SDS011;5458;51.496;7.334;2023-05-10T14:55:11;3.53;;;3.22;;
10811;SDS011;5458;51.496;7.334;2023-05-10T14:57:37;4.93;;;4.50;;
10811;SDS011;5458;51.496;7.334;2023-05-10T15:00:03;5.82;;;3.65;;
10811;SDS011;5458;51.496;7.334;2023-05-10T15:02:30;6.28;;;3.72;;
10811;SDS011;5458;51.496;7.334;2023-05-10T15:04:56;5.13;;;3.75;;
10811;SDS011;5458;51.496;7.334;2023-05-10T15:07:22;4.30;;;3.63;;
10811;SDS011;5458;51.496;7.334;2023-05-10T15:09:48;4.30;;;3.90;;
10811;SDS011;5458;51.496;7.334;2023-05-10T15:12:14;5.50;;;3.60;;
10811;SDS011;5458;51.496;7.334;2023-05-10T15:14:40;3.78;;;3.42;;
10811;SDS011;5458;51.496;7.334;2023-05-10T15:17:06;4.88;;;3.78;;
10811;SDS011;5458;51.496;7.334;2023-05-10T15:19:32;4.10;;;3.80;;